sensor_id;sensor_type;location;lat;lon;timestamp;P1;durP1;ratioP1;P2;durP2;ratioP2
77078;SDS011;66004;55.096;38.760;2023-07-31T00:01:32;3.25;;;2.20;;
77078;SDS011;66004;55.096;38.760;2023-07-31T00:03:58;3.17;;;2.30;;
77078;SDS011;66004;55.096;38.760;2023-07-31T00:06:23;5.10;;;2.65;;
77078;SDS011;66004;55.096;38.760;2023-07-31T00:08:49;5.20;;;2.60;;
77078;SDS011;66004;55.096;38.760;2023-07-31T00:11:14;5.47;;;2.40;;
77078;SDS011;66004;55.096;38.760;2023-07-31T00:13:40;5.28;;;2.30;;
77078;SDS011;66004;55.096;38.760;2023-07-31T00:16:05;7.32;;;2.80;;
77078;SDS011;66004;55.096;38.760;2023-07-31T00:18:31;6.82;;;2.40;;
77078;SDS011;66004;55.096;38.760;2023-07-31T00:20:56;5.07;;;2.40;;
77078;SDS011;66004;55.096;38.760;2023-07-31T00:23:22;5.07;;;2.58;;
77078;SDS011;66004;55.096;38.760;2023-07-31T00:25:47;4.00;;;2.20;;
77078;SDS011;66004;55.096;38.760;2023-07-31T00:28:13;5.10;;;2.72;;
77078;SDS011;66004;55.096;38.760;2023-07-31T00:30:38;4.85;;;2.50;;
77078;SDS011;66004;55.096;38.760;2023-07-31T00:33:04;4.80;;;2.63;;
77078;SDS011;66004;55.096;38.760;2023-07-31T00:35:30;4.53;;;2.70;;
77078;SDS011;66004;55.096;38.760;2023-07-31T00:37:56;4.57;;;2.30;;
77078;SDS011;66004;55.096;38.760;2023-07-31T00:40:23;4.03;;;2.38;;
77078;SDS011;66004;55.096;38.760;2023-07-31T00:42:48;4.75;;;2.63;;
77078;SDS011;66004;55.096;38.760;2023-07-31T00:45:13;7.57;;;2.80;;
77078;SDS011;66004;55.096;38.760;2023-07-31T00:47:39;7.65;;;2.65;;
77078;SDS011;66004;55.096;38.760;2023-07-31T00:50:05;4.07;;;2.50;;
77078;SDS011;66004;55.096;38.760;2023-07-31T00:52:32;5.38;;;2.22;;
77078;SDS011;66004;55.096;38.760;2023-07-31T00:54:57;5.93;;;2.50;;
77078;SDS011;66004;55.096;38.760;2023-07-31T00:57:23;5.00;;;2.53;;
77078;SDS011;66004;55.096;38.760;2023-07-31T00:59:49;8.60;;;2.65;;
77078;SDS011;66004;55.096;38.760;2023-07-31T01:02:14;5.43;;;2.50;;
77078;SDS011;66004;55.096;38.760;2023-07-31T01:07:12;5.32;;;2.60;;
77078;SDS011;66004;55.096;38.760;2023-07-31T01:09:57;4.72;;;2.42;;
77078;SDS011;66004;55.096;38.760;2023-07-31T01:12:29;6.55;;;2.88;;
77078;SDS011;66004;55.096;38.760;2023-07-31T01:15:06;4.45;;;2.58;;
77078;SDS011;66004;55.096;38.760;2023-07-31T01:17:36;7.20;;;2.83;;
77078;SDS011;66004;55.096;38.760;2023-07-31T01:20:02;5.82;;;2.47;;
77078;SDS011;66004;55.096;38.760;2023-07-31T01:27:49;7.95;;;2.75;;
77078;SDS011;66004;55.096;38.760;2023-07-31T01:30:25;5.72;;;2.40;;
77078;SDS011;66004;55.096;38.760;2023-07-31T01:32:58;6.78;;;2.38;;
77078;SDS011;66004;55.096;38.760;2023-07-31T01:35:27;5.40;;;2.47;;
77078;SDS011;66004;55.096;38.760;2023-07-31T01:37:52;3.90;;;2.20;;
77078;SDS011;66004;55.096;38.760;2023-07-31T01:40:19;4.85;;;2.80;;
77078;SDS011;66004;55.096;38.760;2023-07-31T01:42:44;5.38;;;2.30;;
77078;SDS011;66004;55.096;38.760;2023-07-31T01:45:10;4.70;;;2.33;;
77078;SDS011;66004;55.096;38.760;2023-07-31T01:47:36;6.10;;;2.50;;
77078;SDS011;66004;55.096;38.760;2023-07-31T01:50:01;4.32;;;2.42;;
77078;SDS011;66004;55.096;38.760;2023-07-31T01:52:27;4.90;;;2.30;;
77078;SDS011;66004;55.096;38.760;2023-07-31T01:54:53;6.07;;;2.30;;
77078;SDS011;66004;55.096;38.760;2023-07-31T01:57:18;7.45;;;2.70;;
77078;SDS011;66004;55.096;38.760;2023-07-31T01:59:44;4.43;;;2.10;;
77078;SDS011;66004;55.096;38.760;2023-07-31T02:02:10;5.13;;;2.13;;
77078;SDS011;66004;55.096;38.760;2023-07-31T02:04:35;4.82;;;2.40;;
77078;SDS011;66004;55.096;38.760;2023-07-31T02:07:01;8.80;;;2.42;;
77078;SDS011;66004;55.096;38.760;2023-07-31T02:09:26;3.90;;;2.17;;
77078;SDS011;66004;55.096;38.760;2023-07-31T02:11:52;7.32;;;2.53;;
77078;SDS011;66004;55.096;38.760;2023-07-31T02:14:17;4.72;;;2.75;;
77078;SDS011;66004;55.096;38.760;2023-07-31T02:16:43;5.78;;;2.78;;
77078;SDS011;66004;55.096;38.760;2023-07-31T02:19:08;6.47;;;2.50;;
77078;SDS011;66004;55.096;38.760;2023-07-31T02:21:34;7.35;;;2.50;;
77078;SDS011;66004;55.096;38.760;2023-07-31T02:23:59;4.47;;;2.40;;
77078;SDS011;66004;55.096;38.760;2023-07-31T02:26:24;7.25;;;2.80;;
77078;SDS011;66004;55.096;38.760;2023-07-31T02:28:50;4.28;;;2.50;;
77078;SDS011;66004;55.096;38.760;2023-07-31T02:31:15;6.28;;;2.58;;
77078;SDS011;66004;55.096;38.760;2023-07-31T02:33:41;4.45;;;2.42;;
77078;SDS011;66004;55.096;38.760;2023-07-31T02:36:06;7.22;;;2.42;;
77078;SDS011;66004;55.096;38.760;2023-07-31T02:38:32;9.07;;;2.70;;
77078;SDS011;66004;55.096;38.760;2023-07-31T02:40:57;6.13;;;2.38;;
77078;SDS011;66004;55.096;38.760;2023-07-31T02:43:23;2.85;;;2.20;;
77078;SDS011;66004;55.096;38.760;2023-07-31T02:45:52;9.48;;;2.70;;
77078;SDS011;66004;55.096;38.760;2023-07-31T02:48:17;9.40;;;2.50;;
77078;SDS011;66004;55.096;38.760;2023-07-31T02:50:43;4.03;;;2.58;;
77078;SDS011;66004;55.096;38.760;2023-07-31T02:53:09;8.00;;;2.63;;
77078;SDS011;66004;55.096;38.760;2023-07-31T02:55:35;5.72;;;2.63;;
77078;SDS011;66004;55.096;38.760;2023-07-31T02:58:00;4.82;;;2.60;;
77078;SDS011;66004;55.096;38.760;2023-07-31T03:00:26;4.90;;;2.72;;
77078;SDS011;66004;55.096;38.760;2023-07-31T03:02:51;4.05;;;2.50;;
77078;SDS011;66004;55.096;38.760;2023-07-31T03:05:17;4.57;;;2.70;;
77078;SDS011;66004;55.096;38.760;2023-07-31T03:07:42;4.35;;;2.45;;
77078;SDS011;66004;55.096;38.760;2023-07-31T03:10:08;6.60;;;2.47;;
77078;SDS011;66004;55.096;38.760;2023-07-31T03:12:33;3.90;;;2.17;;
77078;SDS011;66004;55.096;38.760;2023-07-31T03:14:59;5.85;;;2.22;;
77078;SDS011;66004;55.096;38.760;2023-07-31T03:17:24;5.80;;;2.33;;
77078;SDS011;66004;55.096;38.760;2023-07-31T03:19:50;7.30;;;2.63;;
77078;SDS011;66004;55.096;38.760;2023-07-31T03:22:15;5.97;;;2.50;;
77078;SDS011;66004;55.096;38.760;2023-07-31T03:24:41;6.57;;;2.60;;
77078;SDS011;66004;55.096;38.760;2023-07-31T03:27:06;8.48;;;3.00;;
77078;SDS011;66004;55.096;38.760;2023-07-31T03:29:32;3.88;;;2.60;;
77078;SDS011;66004;55.096;38.760;2023-07-31T03:31:57;10.13;;;2.58;;
77078;SDS011;66004;55.096;38.760;2023-07-31T03:34:24;5.03;;;2.63;;
77078;SDS011;66004;55.096;38.760;2023-07-31T03:36:49;5.53;;;2.70;;
77078;SDS011;66004;55.096;38.760;2023-07-31T03:39:15;4.75;;;2.42;;
77078;SDS011;66004;55.096;38.760;2023-07-31T03:41:40;4.85;;;2.45;;
77078;SDS011;66004;55.096;38.760;2023-07-31T03:44:06;5.40;;;2.28;;
77078;SDS011;66004;55.096;38.760;2023-07-31T03:46:31;6.28;;;2.95;;
77078;SDS011;66004;55.096;38.760;2023-07-31T03:48:57;6.30;;;2.28;;
77078;SDS011;66004;55.096;38.760;2023-07-31T03:51:22;5.47;;;2.50;;
77078;SDS011;66004;55.096;38.760;2023-07-31T03:53:48;6.32;;;2.13;;
77078;SDS011;66004;55.096;38.760;2023-07-31T03:56:13;4.97;;;2.13;;
77078;SDS011;66004;55.096;38.760;2023-07-31T03:58:39;6.43;;;2.25;;
77078;SDS011;66004;55.096;38.760;2023-07-31T04:01:04;5.45;;;2.03;;
77078;SDS011;66004;55.096;38.760;2023-07-31T04:03:30;4.80;;;2.00;;
77078;SDS011;66004;55.096;38.760;2023-07-31T04:05:55;4.25;;;2.10;;
77078;SDS011;66004;55.096;38.760;2023-07-31T04:08:21;2.45;;;1.75;;
77078;SDS011;66004;55.096;38.760;2023-07-31T04:10:47;5.60;;;2.00;;
77078;SDS011;66004;55.096;38.760;2023-07-31T04:13:13;5.38;;;2.10;;
77078;SDS011;66004;55.096;38.760;2023-07-31T04:15:39;5.50;;;2.00;;
77078;SDS011;66004;55.096;38.760;2023-07-31T04:18:04;3.83;;;1.80;;
77078;SDS011;66004;55.096;38.760;2023-07-31T04:20:30;3.13;;;1.80;;
77078;SDS011;66004;55.096;38.760;2023-07-31T04:22:56;8.40;;;2.10;;
77078;SDS011;66004;55.096;38.760;2023-07-31T04:25:21;8.75;;;1.85;;
77078;SDS011;66004;55.096;38.760;2023-07-31T04:27:47;8.65;;;2.00;;
77078;SDS011;66004;55.096;38.760;2023-07-31T04:30:12;5.93;;;1.98;;
77078;SDS011;66004;55.096;38.760;2023-07-31T04:32:38;7.45;;;2.00;;
77078;SDS011;66004;55.096;38.760;2023-07-31T04:35:03;8.63;;;2.72;;
77078;SDS011;66004;55.096;38.760;2023-07-31T04:37:29;21.27;;;2.70;;
77078;SDS011;66004;55.096;38.760;2023-07-31T04:39:55;7.45;;;1.80;;
77078;SDS011;66004;55.096;38.760;2023-07-31T04:42:20;2.80;;;1.63;;
77078;SDS011;66004;55.096;38.760;2023-07-31T04:44:46;6.35;;;1.63;;
77078;SDS011;66004;55.096;38.760;2023-07-31T04:47:11;5.40;;;1.60;;
77078;SDS011;66004;55.096;38.760;2023-07-31T04:49:37;2.85;;;1.80;;
77078;SDS011;66004;55.096;38.760;2023-07-31T04:52:02;3.45;;;1.60;;
77078;SDS011;66004;55.096;38.760;2023-07-31T04:54:28;6.93;;;1.77;;
77078;SDS011;66004;55.096;38.760;2023-07-31T04:56:54;5.00;;;1.77;;
77078;SDS011;66004;55.096;38.760;2023-07-31T04:59:19;4.70;;;1.70;;
77078;SDS011;66004;55.096;38.760;2023-07-31T05:01:45;3.33;;;1.67;;
77078;SDS011;66004;55.096;38.760;2023-07-31T05:04:13;9.65;;;2.03;;
77078;SDS011;66004;55.096;38.760;2023-07-31T05:06:39;3.08;;;1.65;;
77078;SDS011;66004;55.096;38.760;2023-07-31T05:09:05;3.90;;;1.60;;
77078;SDS011;66004;55.096;38.760;2023-07-31T05:11:30;2.30;;;1.48;;
77078;SDS011;66004;55.096;38.760;2023-07-31T05:13:56;5.65;;;1.60;;
77078;SDS011;66004;55.096;38.760;2023-07-31T05:16:21;4.05;;;1.48;;
77078;SDS011;66004;55.096;38.760;2023-07-31T05:18:47;4.78;;;1.73;;
77078;SDS011;66004;55.096;38.760;2023-07-31T05:21:12;4.80;;;1.60;;
77078;SDS011;66004;55.096;38.760;2023-07-31T05:23:38;4.25;;;1.77;;
77078;SDS011;66004;55.096;38.760;2023-07-31T05:26:04;6.13;;;2.00;;
77078;SDS011;66004;55.096;38.760;2023-07-31T05:28:30;8.15;;;1.90;;
77078;SDS011;66004;55.096;38.760;2023-07-31T05:31:02;4.65;;;2.13;;
77078;SDS011;66004;55.096;38.760;2023-07-31T05:33:28;4.20;;;2.03;;
77078;SDS011;66004;55.096;38.760;2023-07-31T05:35:54;7.05;;;1.60;;
77078;SDS011;66004;55.096;38.760;2023-07-31T05:38:19;5.88;;;1.80;;
77078;SDS011;66004;55.096;38.760;2023-07-31T05:40:45;2.25;;;1.50;;
77078;SDS011;66004;55.096;38.760;2023-07-31T05:43:11;7.93;;;1.58;;
77078;SDS011;66004;55.096;38.760;2023-07-31T05:45:36;4.05;;;1.45;;
77078;SDS011;66004;55.096;38.760;2023-07-31T05:48:03;4.53;;;1.48;;
77078;SDS011;66004;55.096;38.760;2023-07-31T05:50:29;3.47;;;1.35;;
77078;SDS011;66004;55.096;38.760;2023-07-31T05:52:55;7.45;;;1.70;;
77078;SDS011;66004;55.096;38.760;2023-07-31T05:55:21;5.45;;;2.00;;
77078;SDS011;66004;55.096;38.760;2023-07-31T05:57:46;1.92;;;1.38;;
77078;SDS011;66004;55.096;38.760;2023-07-31T06:00:12;4.30;;;1.60;;
77078;SDS011;66004;55.096;38.760;2023-07-31T06:02:38;13.60;;;2.30;;
77078;SDS011;66004;55.096;38.760;2023-07-31T06:05:04;3.40;;;1.42;;
77078;SDS011;66004;55.096;38.760;2023-07-31T06:07:33;4.53;;;1.67;;
77078;SDS011;66004;55.096;38.760;2023-07-31T06:09:59;7.85;;;1.75;;
77078;SDS011;66004;55.096;38.760;2023-07-31T06:12:30;5.93;;;1.30;;
77078;SDS011;66004;55.096;38.760;2023-07-31T06:14:59;1.83;;;1.17;;
77078;SDS011;66004;55.096;38.760;2023-07-31T06:17:25;4.10;;;1.50;;
77078;SDS011;66004;55.096;38.760;2023-07-31T06:19:56;5.53;;;1.45;;
77078;SDS011;66004;55.096;38.760;2023-07-31T06:22:22;2.97;;;1.23;;
77078;SDS011;66004;55.096;38.760;2023-07-31T06:24:48;9.65;;;1.27;;
77078;SDS011;66004;55.096;38.760;2023-07-31T06:27:13;3.25;;;1.50;;
77078;SDS011;66004;55.096;38.760;2023-07-31T06:29:38;2.47;;;1.13;;
77078;SDS011;66004;55.096;38.760;2023-07-31T06:32:04;5.97;;;1.40;;
77078;SDS011;66004;55.096;38.760;2023-07-31T06:34:29;6.03;;;1.80;;
77078;SDS011;66004;55.096;38.760;2023-07-31T06:36:58;4.47;;;1.90;;
77078;SDS011;66004;55.096;38.760;2023-07-31T06:39:23;3.55;;;1.40;;
77078;SDS011;66004;55.096;38.760;2023-07-31T06:41:49;3.00;;;1.60;;
77078;SDS011;66004;55.096;38.760;2023-07-31T06:44:14;3.67;;;1.33;;
77078;SDS011;66004;55.096;38.760;2023-07-31T06:46:40;3.05;;;1.50;;
77078;SDS011;66004;55.096;38.760;2023-07-31T06:49:08;5.28;;;1.63;;
77078;SDS011;66004;55.096;38.760;2023-07-31T06:51:34;2.80;;;1.30;;
77078;SDS011;66004;55.096;38.760;2023-07-31T06:54:01;3.38;;;1.58;;
77078;SDS011;66004;55.096;38.760;2023-07-31T06:56:26;5.20;;;1.40;;
77078;SDS011;66004;55.096;38.760;2023-07-31T06:58:52;5.75;;;1.20;;
77078;SDS011;66004;55.096;38.760;2023-07-31T07:01:18;2.97;;;1.20;;
77078;SDS011;66004;55.096;38.760;2023-07-31T07:03:43;1.58;;;1.08;;
77078;SDS011;66004;55.096;38.760;2023-07-31T07:06:09;2.08;;;1.10;;
77078;SDS011;66004;55.096;38.760;2023-07-31T07:08:34;2.00;;;1.27;;
77078;SDS011;66004;55.096;38.760;2023-07-31T07:11:00;1.77;;;1.10;;
77078;SDS011;66004;55.096;38.760;2023-07-31T07:13:26;5.85;;;1.60;;
77078;SDS011;66004;55.096;38.760;2023-07-31T07:15:52;6.63;;;2.00;;
77078;SDS011;66004;55.096;38.760;2023-07-31T07:18:19;9.25;;;1.40;;
77078;SDS011;66004;55.096;38.760;2023-07-31T07:20:49;4.25;;;1.20;;
77078;SDS011;66004;55.096;38.760;2023-07-31T07:23:18;2.83;;;1.05;;
77078;SDS011;66004;55.096;38.760;2023-07-31T07:25:45;2.90;;;1.60;;
77078;SDS011;66004;55.096;38.760;2023-07-31T07:28:11;1.80;;;1.05;;
77078;SDS011;66004;55.096;38.760;2023-07-31T07:30:37;3.85;;;1.08;;
77078;SDS011;66004;55.096;38.760;2023-07-31T07:33:03;3.10;;;1.42;;
77078;SDS011;66004;55.096;38.760;2023-07-31T07:35:28;1.65;;;1.02;;
77078;SDS011;66004;55.096;38.760;2023-07-31T07:37:54;2.67;;;1.00;;
77078;SDS011;66004;55.096;38.760;2023-07-31T07:40:20;4.43;;;1.40;;
77078;SDS011;66004;55.096;38.760;2023-07-31T07:42:46;3.75;;;1.45;;
77078;SDS011;66004;55.096;38.760;2023-07-31T07:45:12;2.50;;;1.05;;
77078;SDS011;66004;55.096;38.760;2023-07-31T07:47:38;3.63;;;1.17;;
77078;SDS011;66004;55.096;38.760;2023-07-31T07:50:06;3.70;;;1.17;;
77078;SDS011;66004;55.096;38.760;2023-07-31T07:52:32;2.28;;;1.67;;
77078;SDS011;66004;55.096;38.760;2023-07-31T07:54:57;2.88;;;0.98;;
77078;SDS011;66004;55.096;38.760;2023-07-31T07:57:23;4.57;;;1.10;;
77078;SDS011;66004;55.096;38.760;2023-07-31T07:59:48;2.92;;;1.10;;
77078;SDS011;66004;55.096;38.760;2023-07-31T08:02:14;2.33;;;1.40;;
77078;SDS011;66004;55.096;38.760;2023-07-31T08:04:39;9.02;;;4.50;;
77078;SDS011;66004;55.096;38.760;2023-07-31T08:07:05;3.28;;;1.25;;
77078;SDS011;66004;55.096;38.760;2023-07-31T08:09:30;9.50;;;1.13;;
77078;SDS011;66004;55.096;38.760;2023-07-31T08:11:56;4.70;;;1.70;;
77078;SDS011;66004;55.096;38.760;2023-07-31T08:14:26;3.05;;;1.20;;
77078;SDS011;66004;55.096;38.760;2023-07-31T08:16:52;5.07;;;1.20;;
77078;SDS011;66004;55.096;38.760;2023-07-31T08:19:17;5.78;;;1.50;;
77078;SDS011;66004;55.096;38.760;2023-07-31T08:21:43;2.72;;;1.10;;
77078;SDS011;66004;55.096;38.760;2023-07-31T08:24:08;3.20;;;1.63;;
77078;SDS011;66004;55.096;38.760;2023-07-31T08:26:34;3.60;;;1.23;;
77078;SDS011;66004;55.096;38.760;2023-07-31T08:28:59;1.98;;;1.30;;
77078;SDS011;66004;55.096;38.760;2023-07-31T08:31:25;2.13;;;1.10;;
77078;SDS011;66004;55.096;38.760;2023-07-31T08:33:51;4.57;;;1.15;;
77078;SDS011;66004;55.096;38.760;2023-07-31T08:36:17;4.68;;;1.13;;
77078;SDS011;66004;55.096;38.760;2023-07-31T08:38:42;4.10;;;1.17;;
77078;SDS011;66004;55.096;38.760;2023-07-31T08:41:08;5.82;;;1.40;;
77078;SDS011;66004;55.096;38.760;2023-07-31T08:43:34;1.80;;;1.20;;
77078;SDS011;66004;55.096;38.760;2023-07-31T08:46:01;2.97;;;1.08;;
77078;SDS011;66004;55.096;38.760;2023-07-31T08:48:27;2.92;;;1.00;;
77078;SDS011;66004;55.096;38.760;2023-07-31T08:50:54;1.90;;;0.85;;
77078;SDS011;66004;55.096;38.760;2023-07-31T08:53:19;1.58;;;1.00;;
77078;SDS011;66004;55.096;38.760;2023-07-31T08:55:46;5.30;;;1.15;;
77078;SDS011;66004;55.096;38.760;2023-07-31T08:58:12;2.47;;;1.02;;
77078;SDS011;66004;55.096;38.760;2023-07-31T09:00:39;1.35;;;0.90;;
77078;SDS011;66004;55.096;38.760;2023-07-31T09:03:09;3.38;;;0.90;;
77078;SDS011;66004;55.096;38.760;2023-07-31T09:05:38;1.80;;;0.90;;
77078;SDS011;66004;55.096;38.760;2023-07-31T09:08:06;1.27;;;1.00;;
77078;SDS011;66004;55.096;38.760;2023-07-31T09:10:34;1.20;;;0.70;;
77078;SDS011;66004;55.096;38.760;2023-07-31T09:13:00;3.65;;;1.05;;
77078;SDS011;66004;55.096;38.760;2023-07-31T09:15:26;4.38;;;1.40;;
77078;SDS011;66004;55.096;38.760;2023-07-31T09:18:02;1.42;;;0.93;;
77078;SDS011;66004;55.096;38.760;2023-07-31T09:20:28;3.38;;;1.52;;
77078;SDS011;66004;55.096;38.760;2023-07-31T09:22:54;4.72;;;1.30;;
77078;SDS011;66004;55.096;38.760;2023-07-31T09:25:21;3.88;;;1.20;;
77078;SDS011;66004;55.096;38.760;2023-07-31T09:30:26;2.70;;;1.40;;
77078;SDS011;66004;55.096;38.760;2023-07-31T09:33:00;5.40;;;1.55;;
77078;SDS011;66004;55.096;38.760;2023-07-31T09:35:29;6.22;;;2.00;;
77078;SDS011;66004;55.096;38.760;2023-07-31T09:38:01;5.82;;;1.23;;
77078;SDS011;66004;55.096;38.760;2023-07-31T09:40:32;6.07;;;1.80;;
77078;SDS011;66004;55.096;38.760;2023-07-31T09:43:02;4.47;;;1.52;;
77078;SDS011;66004;55.096;38.760;2023-07-31T09:45:29;2.45;;;1.00;;
77078;SDS011;66004;55.096;38.760;2023-07-31T09:47:55;4.70;;;1.15;;
77078;SDS011;66004;55.096;38.760;2023-07-31T09:50:22;1.50;;;1.00;;
77078;SDS011;66004;55.096;38.760;2023-07-31T09:52:49;3.65;;;1.05;;
77078;SDS011;66004;55.096;38.760;2023-07-31T09:55:16;3.05;;;0.80;;
77078;SDS011;66004;55.096;38.760;2023-07-31T09:57:47;2.65;;;1.30;;
77078;SDS011;66004;55.096;38.760;2023-07-31T10:00:17;2.28;;;1.30;;
77078;SDS011;66004;55.096;38.760;2023-07-31T10:02:47;3.22;;;1.10;;
77078;SDS011;66004;55.096;38.760;2023-07-31T10:05:16;3.03;;;1.08;;
77078;SDS011;66004;55.096;38.760;2023-07-31T10:07:43;2.95;;;1.23;;
77078;SDS011;66004;55.096;38.760;2023-07-31T10:10:13;4.68;;;1.35;;
77078;SDS011;66004;55.096;38.760;2023-07-31T10:12:40;1.80;;;1.10;;
77078;SDS011;66004;55.096;38.760;2023-07-31T10:15:07;3.60;;;1.10;;
77078;SDS011;66004;55.096;38.760;2023-07-31T10:17:34;5.18;;;1.83;;
77078;SDS011;66004;55.096;38.760;2023-07-31T10:20:01;3.08;;;1.50;;
77078;SDS011;66004;55.096;38.760;2023-07-31T10:22:30;3.03;;;1.38;;
77078;SDS011;66004;55.096;38.760;2023-07-31T10:24:57;1.05;;;0.80;;
77078;SDS011;66004;55.096;38.760;2023-07-31T10:27:23;1.55;;;1.00;;
77078;SDS011;66004;55.096;38.760;2023-07-31T10:29:49;2.75;;;0.70;;
77078;SDS011;66004;55.096;38.760;2023-07-31T10:32:17;1.55;;;1.20;;
77078;SDS011;66004;55.096;38.760;2023-07-31T10:34:44;2.78;;;1.27;;
77078;SDS011;66004;55.096;38.760;2023-07-31T10:37:24;1.42;;;1.00;;
77078;SDS011;66004;55.096;38.760;2023-07-31T10:42:33;3.30;;;0.95;;
77078;SDS011;66004;55.096;38.760;2023-07-31T10:45:08;4.80;;;0.88;;
77078;SDS011;66004;55.096;38.760;2023-07-31T10:47:37;2.10;;;1.00;;
77078;SDS011;66004;55.096;38.760;2023-07-31T10:50:14;1.55;;;0.80;;
77078;SDS011;66004;55.096;38.760;2023-07-31T10:52:47;3.35;;;1.02;;
77078;SDS011;66004;55.096;38.760;2023-07-31T11:00:36;4.63;;;0.95;;
77078;SDS011;66004;55.096;38.760;2023-07-31T11:03:10;5.15;;;0.90;;
77078;SDS011;66004;55.096;38.760;2023-07-31T11:10:37;2.17;;;1.00;;
77078;SDS011;66004;55.096;38.760;2023-07-31T11:13:06;3.00;;;1.05;;
77078;SDS011;66004;55.096;38.760;2023-07-31T11:15:31;2.45;;;1.25;;
77078;SDS011;66004;55.096;38.760;2023-07-31T11:17:57;5.50;;;1.73;;
77078;SDS011;66004;55.096;38.760;2023-07-31T11:20:25;4.25;;;1.20;;
77078;SDS011;66004;55.096;38.760;2023-07-31T11:22:51;4.65;;;1.55;;
77078;SDS011;66004;55.096;38.760;2023-07-31T11:25:17;3.83;;;1.10;;
77078;SDS011;66004;55.096;38.760;2023-07-31T11:27:43;2.75;;;1.10;;
77078;SDS011;66004;55.096;38.760;2023-07-31T11:30:09;4.15;;;1.10;;
77078;SDS011;66004;55.096;38.760;2023-07-31T11:32:38;1.88;;;1.25;;
77078;SDS011;66004;55.096;38.760;2023-07-31T11:35:04;4.22;;;1.55;;
77078;SDS011;66004;55.096;38.760;2023-07-31T11:37:43;1.77;;;1.05;;
77078;SDS011;66004;55.096;38.760;2023-07-31T11:40:09;2.22;;;1.00;;
77078;SDS011;66004;55.096;38.760;2023-07-31T11:42:35;2.95;;;1.00;;
77078;SDS011;66004;55.096;38.760;2023-07-31T11:45:02;5.32;;;1.15;;
77078;SDS011;66004;55.096;38.760;2023-07-31T11:47:29;2.00;;;1.00;;
77078;SDS011;66004;55.096;38.760;2023-07-31T11:49:55;2.28;;;1.10;;
77078;SDS011;66004;55.096;38.760;2023-07-31T11:52:21;1.90;;;1.00;;
77078;SDS011;66004;55.096;38.760;2023-07-31T11:54:48;2.42;;;0.90;;
77078;SDS011;66004;55.096;38.760;2023-07-31T11:57:14;2.67;;;0.98;;
77078;SDS011;66004;55.096;38.760;2023-07-31T11:59:41;2.25;;;1.20;;
77078;SDS011;66004;55.096;38.760;2023-07-31T12:02:07;2.97;;;1.00;;
77078;SDS011;66004;55.096;38.760;2023-07-31T12:04:33;4.57;;;2.20;;
77078;SDS011;66004;55.096;38.760;2023-07-31T12:07:00;4.32;;;1.42;;
77078;SDS011;66004;55.096;38.760;2023-07-31T12:09:25;3.90;;;1.63;;
77078;SDS011;66004;55.096;38.760;2023-07-31T12:11:51;4.30;;;2.75;;
77078;SDS011;66004;55.096;38.760;2023-07-31T12:16:46;5.90;;;2.10;;
77078;SDS011;66004;55.096;38.760;2023-07-31T12:19:11;5.25;;;2.22;;
77078;SDS011;66004;55.096;38.760;2023-07-31T12:21:37;3.53;;;1.30;;
77078;SDS011;66004;55.096;38.760;2023-07-31T12:24:03;3.30;;;1.42;;
77078;SDS011;66004;55.096;38.760;2023-07-31T12:26:33;6.45;;;1.67;;
77078;SDS011;66004;55.096;38.760;2023-07-31T12:28:59;2.75;;;1.23;;
77078;SDS011;66004;55.096;38.760;2023-07-31T12:31:25;5.03;;;1.33;;
77078;SDS011;66004;55.096;38.760;2023-07-31T12:33:53;7.10;;;1.55;;
77078;SDS011;66004;55.096;38.760;2023-07-31T12:36:21;4.80;;;1.25;;
77078;SDS011;66004;55.096;38.760;2023-07-31T12:38:49;5.07;;;1.30;;
77078;SDS011;66004;55.096;38.760;2023-07-31T12:41:15;6.07;;;1.35;;
77078;SDS011;66004;55.096;38.760;2023-07-31T12:43:41;4.68;;;1.08;;
77078;SDS011;66004;55.096;38.760;2023-07-31T12:46:09;2.85;;;1.20;;
77078;SDS011;66004;55.096;38.760;2023-07-31T12:48:35;2.42;;;1.30;;
77078;SDS011;66004;55.096;38.760;2023-07-31T12:51:02;1.98;;;1.38;;
77078;SDS011;66004;55.096;38.760;2023-07-31T12:53:27;4.22;;;1.30;;
77078;SDS011;66004;55.096;38.760;2023-07-31T12:55:53;2.50;;;1.30;;
77078;SDS011;66004;55.096;38.760;2023-07-31T12:58:20;2.65;;;1.23;;
77078;SDS011;66004;55.096;38.760;2023-07-31T13:00:45;3.53;;;1.42;;
77078;SDS011;66004;55.096;38.760;2023-07-31T13:03:11;5.50;;;2.50;;
77078;SDS011;66004;55.096;38.760;2023-07-31T13:05:36;9.73;;;2.15;;
77078;SDS011;66004;55.096;38.760;2023-07-31T13:08:02;2.47;;;1.30;;
77078;SDS011;66004;55.096;38.760;2023-07-31T13:10:27;3.97;;;1.35;;
77078;SDS011;66004;55.096;38.760;2023-07-31T13:12:54;4.93;;;1.55;;
77078;SDS011;66004;55.096;38.760;2023-07-31T13:15:20;3.05;;;1.23;;
77078;SDS011;66004;55.096;38.760;2023-07-31T13:17:46;2.97;;;1.20;;
77078;SDS011;66004;55.096;38.760;2023-07-31T13:20:11;3.20;;;1.23;;
77078;SDS011;66004;55.096;38.760;2023-07-31T13:22:37;4.93;;;1.35;;
77078;SDS011;66004;55.096;38.760;2023-07-31T13:25:03;13.82;;;2.40;;
77078;SDS011;66004;55.096;38.760;2023-07-31T13:27:30;3.90;;;1.30;;
77078;SDS011;66004;55.096;38.760;2023-07-31T13:29:55;3.28;;;1.50;;
77078;SDS011;66004;55.096;38.760;2023-07-31T13:32:21;2.65;;;1.38;;
77078;SDS011;66004;55.096;38.760;2023-07-31T13:34:47;2.65;;;1.20;;
77078;SDS011;66004;55.096;38.760;2023-07-31T13:37:13;3.15;;;1.20;;
77078;SDS011;66004;55.096;38.760;2023-07-31T13:39:39;7.35;;;1.85;;
77078;SDS011;66004;55.096;38.760;2023-07-31T13:42:06;5.20;;;1.20;;
77078;SDS011;66004;55.096;38.760;2023-07-31T13:44:33;2.97;;;1.25;;
77078;SDS011;66004;55.096;38.760;2023-07-31T13:47:02;6.40;;;1.30;;
77078;SDS011;66004;55.096;38.760;2023-07-31T13:49:28;3.08;;;1.17;;
77078;SDS011;66004;55.096;38.760;2023-07-31T13:51:55;3.08;;;1.45;;
77078;SDS011;66004;55.096;38.760;2023-07-31T13:54:21;4.38;;;1.30;;
77078;SDS011;66004;55.096;38.760;2023-07-31T13:56:47;4.28;;;1.25;;
77078;SDS011;66004;55.096;38.760;2023-07-31T13:59:13;2.92;;;1.42;;
77078;SDS011;66004;55.096;38.760;2023-07-31T14:01:40;3.50;;;1.73;;
77078;SDS011;66004;55.096;38.760;2023-07-31T14:04:05;2.33;;;1.30;;
77078;SDS011;66004;55.096;38.760;2023-07-31T14:06:31;4.68;;;1.90;;
77078;SDS011;66004;55.096;38.760;2023-07-31T14:08:56;2.00;;;1.25;;
77078;SDS011;66004;55.096;38.760;2023-07-31T14:11:22;7.70;;;2.17;;
77078;SDS011;66004;55.096;38.760;2023-07-31T14:13:48;13.70;;;1.70;;
77078;SDS011;66004;55.096;38.760;2023-07-31T14:16:14;3.00;;;1.52;;
77078;SDS011;66004;55.096;38.760;2023-07-31T14:18:40;2.13;;;1.25;;
77078;SDS011;66004;55.096;38.760;2023-07-31T14:21:06;5.43;;;1.42;;
77078;SDS011;66004;55.096;38.760;2023-07-31T14:23:32;2.20;;;1.42;;
77078;SDS011;66004;55.096;38.760;2023-07-31T14:25:57;5.63;;;1.90;;
77078;SDS011;66004;55.096;38.760;2023-07-31T14:28:22;4.68;;;1.45;;
77078;SDS011;66004;55.096;38.760;2023-07-31T14:30:48;5.95;;;1.52;;
77078;SDS011;66004;55.096;38.760;2023-07-31T14:33:14;2.63;;;1.60;;
77078;SDS011;66004;55.096;38.760;2023-07-31T14:35:39;3.17;;;1.52;;
77078;SDS011;66004;55.096;38.760;2023-07-31T14:38:04;3.78;;;1.42;;
77078;SDS011;66004;55.096;38.760;2023-07-31T14:40:30;2.70;;;1.52;;
77078;SDS011;66004;55.096;38.760;2023-07-31T14:42:55;6.85;;;2.10;;
77078;SDS011;66004;55.096;38.760;2023-07-31T14:45:21;4.90;;;2.08;;
77078;SDS011;66004;55.096;38.760;2023-07-31T14:47:46;5.22;;;1.48;;
77078;SDS011;66004;55.096;38.760;2023-07-31T14:50:12;5.45;;;1.63;;
77078;SDS011;66004;55.096;38.760;2023-07-31T14:52:37;2.03;;;1.30;;
77078;SDS011;66004;55.096;38.760;2023-07-31T14:55:03;5.50;;;1.63;;